createdAt,value
2023-03-07T00:01:00.588Z,99199.19
2023-03-07T00:03:27.730Z,99186.91
2023-03-07T00:06:10.326Z,99186.91
2023-03-07T00:08:37.674Z,99179.03
2023-03-07T00:11:07.596Z,99172.88
2023-03-07T00:13:38.312Z,99169.38
2023-03-07T00:16:18.002Z,99165.00
2023-03-07T00:18:44.938Z,99158.00
2023-03-07T00:21:14.828Z,99153.63
2023-03-07T00:23:44.305Z,99145.72
2023-03-07T00:26:17.859Z,99144.84
2023-03-07T00:28:48.193Z,99136.06
2023-03-07T00:31:14.976Z,99136.06
2023-03-07T00:33:42.328Z,99130.78
2023-03-07T00:36:16.684Z,99123.81
2023-03-07T00:38:44.852Z,99134.31
2023-03-07T00:41:24.760Z,99115.94
2023-03-07T00:43:52.351Z,99121.19
2023-03-07T00:46:20.728Z,99109.81
2023-03-07T00:48:48.245Z,99102.78
2023-03-07T00:51:17.452Z,99101.91
2023-03-07T00:53:44.644Z,99104.53
2023-03-07T00:56:37.939Z,99090.53
2023-03-07T00:59:04.778Z,99081.81
2023-03-07T01:01:31.772Z,99080.94
2023-03-07T01:03:58.649Z,99078.31
2023-03-07T01:06:28.999Z,99064.28
2023-03-07T01:09:02.115Z,99063.44
2023-03-07T01:11:30.645Z,99050.31
2023-03-07T01:14:00.125Z,99053.81
2023-03-07T01:16:31.034Z,99045.06
2023-03-07T01:19:12.279Z,99039.81
2023-03-07T01:21:41.637Z,99034.56
2023-03-07T01:24:14.119Z,99028.44
2023-03-07T01:26:40.959Z,99016.16
2023-03-07T01:29:08.453Z,99018.78
2023-03-07T01:31:35.741Z,99002.16
2023-03-07T01:34:03.796Z,99003.03
2023-03-07T01:36:34.099Z,98993.41
2023-03-07T01:39:07.638Z,98986.41
2023-03-07T01:41:37.190Z,98989.06
2023-03-07T01:44:14.915Z,98981.19
2023-03-07T01:46:53.393Z,98969.75
2023-03-07T01:49:35.092Z,98971.56
2023-03-07T01:52:04.703Z,98971.56
2023-03-07T01:54:34.323Z,98959.28
2023-03-07T01:57:03.164Z,98960.16
2023-03-07T01:59:35.096Z,98952.28
2023-03-07T02:02:09.069Z,98944.41
2023-03-07T02:04:58.060Z,98948.75
2023-03-07T02:07:30.755Z,98945.31
2023-03-07T02:10:00.170Z,98948.78
2023-03-07T02:12:27.585Z,98938.28
2023-03-07T02:14:54.391Z,98942.66
2023-03-07T02:17:21.188Z,98943.53
2023-03-07T02:20:41.983Z,98933.03
2023-03-07T02:23:13.826Z,98934.81
2023-03-07T02:25:49.577Z,98931.31
2023-03-07T02:28:18.989Z,98928.69
2023-03-07T02:31:02.937Z,98924.31
2023-03-07T02:33:30.068Z,98915.56
2023-03-07T02:36:03.421Z,98906.81
2023-03-07T02:38:33.432Z,98906.81
2023-03-07T02:41:00.212Z,98906.81
2023-03-07T02:43:27.297Z,98906.81
2023-03-07T02:45:55.618Z,98904.16
2023-03-07T02:48:22.365Z,98905.91
2023-03-07T02:50:49.476Z,98895.41
2023-03-07T02:53:16.488Z,98893.66
2023-03-07T02:55:43.356Z,98894.53
2023-03-07T02:58:10.173Z,98899.78
2023-03-07T03:00:37.183Z,98894.53
2023-03-07T03:03:04.161Z,98883.16
2023-03-07T03:05:31.159Z,98893.66
2023-03-07T03:07:57.942Z,98888.41
2023-03-07T03:10:24.728Z,98878.78
2023-03-07T03:12:51.489Z,98885.78
2023-03-07T03:15:18.292Z,98882.28
2023-03-07T03:17:45.110Z,98891.91
2023-03-07T03:20:12.961Z,98879.66
2023-03-07T03:22:41.202Z,98883.13
2023-03-07T03:25:11.665Z,98875.25
2023-03-07T03:27:39.123Z,98876.13
2023-03-07T03:30:08.627Z,98870.00
2023-03-07T03:32:38.327Z,98866.47
2023-03-07T03:35:06.964Z,98873.50
2023-03-07T03:37:34.223Z,98868.22
2023-03-07T03:40:01.123Z,98869.94
2023-03-07T03:42:28.191Z,98866.44
2023-03-07T03:44:54.951Z,98866.44
2023-03-07T03:47:21.724Z,98869.94
2023-03-07T03:49:48.541Z,98868.19
2023-03-07T03:52:15.324Z,98871.69
2023-03-07T03:54:42.112Z,98871.69
2023-03-07T03:57:08.902Z,98860.31
2023-03-07T03:59:35.709Z,98862.91
2023-03-07T04:02:02.526Z,98851.50
2023-03-07T04:04:29.403Z,98859.38
2023-03-07T04:06:56.163Z,98866.34
2023-03-07T04:09:22.918Z,98846.22
2023-03-07T04:11:49.739Z,98855.84
2023-03-07T04:14:16.527Z,98861.94
2023-03-07T04:16:43.289Z,98857.53
2023-03-07T04:19:12.909Z,98854.00
2023-03-07T04:21:40.755Z,98852.25
2023-03-07T04:24:08.942Z,98860.13
2023-03-07T04:26:36.658Z,98860.97
2023-03-07T04:29:04.353Z,98861.84
2023-03-07T04:31:31.498Z,98853.94
2023-03-07T04:33:58.621Z,98847.81
2023-03-07T04:36:25.768Z,98842.53
2023-03-07T04:38:52.882Z,98843.38
2023-03-07T04:41:23.538Z,98848.63
2023-03-07T04:43:50.328Z,98840.75
2023-03-07T04:46:18.935Z,98836.38
2023-03-07T04:48:46.647Z,98839.84
2023-03-07T04:51:13.936Z,98845.09
2023-03-07T04:53:40.725Z,98841.59
2023-03-07T04:56:09.040Z,98835.47
2023-03-07T04:58:36.946Z,98836.34
2023-03-07T05:01:04.983Z,98832.81
2023-03-07T05:03:32.664Z,98845.97
2023-03-07T05:06:14.488Z,98850.34
2023-03-07T05:08:41.396Z,98832.88
2023-03-07T05:11:08.231Z,98841.63
2023-03-07T05:13:35.127Z,98841.63
2023-03-07T05:16:02.009Z,98836.44
2023-03-07T05:18:29.398Z,98853.94
2023-03-07T05:20:56.337Z,98855.75
2023-03-07T05:23:23.145Z,98862.78
2023-03-07T05:25:50.364Z,98875.09
2023-03-07T05:28:17.297Z,98869.03
2023-03-07T05:30:45.731Z,98866.44
2023-03-07T05:33:12.844Z,98861.28
2023-03-07T05:35:39.890Z,98864.81
2023-03-07T05:38:08.081Z,98868.31
2023-03-07T05:40:35.163Z,98859.59
2023-03-07T05:43:02.308Z,98860.50
2023-03-07T05:45:29.199Z,98856.16
2023-03-07T05:47:55.945Z,98852.66
2023-03-07T05:50:22.722Z,98853.56
2023-03-07T05:52:49.822Z,98849.19
2023-03-07T05:55:16.616Z,98850.06
2023-03-07T05:57:43.419Z,98831.69
2023-03-07T06:00:11.377Z,98832.56
2023-03-07T06:02:38.258Z,98829.94
2023-03-07T06:05:05.431Z,98834.31
2023-03-07T06:07:32.234Z,98828.22
2023-03-07T06:09:59.058Z,98822.97
2023-03-07T06:12:25.958Z,98822.97
2023-03-07T06:14:52.736Z,98821.22
2023-03-07T06:17:19.542Z,98808.97
2023-03-07T06:19:46.306Z,98815.97
2023-03-07T06:22:13.117Z,98803.69
2023-03-07T06:24:40.004Z,98812.47
2023-03-07T06:27:06.752Z,98818.59
2023-03-07T06:29:33.581Z,98813.34
2023-03-07T06:32:00.515Z,98805.47
2023-03-07T06:34:27.486Z,98818.59
2023-03-07T06:36:54.436Z,98809.84
2023-03-07T06:39:21.473Z,98819.47
2023-03-07T06:41:51.590Z,98819.44
2023-03-07T06:44:18.773Z,98829.06
2023-03-07T06:46:46.290Z,98834.28
2023-03-07T06:49:13.394Z,98830.78
2023-03-07T06:51:40.552Z,98841.22
2023-03-07T06:54:07.363Z,98842.09
2023-03-07T06:56:35.231Z,98840.31
2023-03-07T06:59:02.584Z,98847.28
2023-03-07T07:01:29.434Z,98840.25
2023-03-07T07:03:57.167Z,98840.22
2023-03-07T07:06:24.283Z,98832.28
2023-03-07T07:08:55.800Z,98838.38
2023-03-07T07:11:24.001Z,98827.88
2023-03-07T07:13:50.962Z,98836.56
2023-03-07T07:16:18.827Z,98838.28
2023-03-07T07:18:46.100Z,98838.25
2023-03-07T07:21:12.924Z,98839.97
2023-03-07T07:23:40.003Z,98838.19
2023-03-07T07:26:06.901Z,98838.19
2023-03-07T07:28:33.756Z,98835.50
2023-03-07T07:31:00.638Z,98843.38
2023-03-07T07:33:27.677Z,98845.09
2023-03-07T07:35:54.562Z,98846.78
2023-03-07T07:38:21.367Z,98846.78
2023-03-07T07:40:48.184Z,98850.25
2023-03-07T07:43:16.387Z,98848.53
2023-03-07T07:45:43.510Z,98843.22
2023-03-07T07:48:10.497Z,98844.09
2023-03-07T07:50:37.672Z,98844.94
2023-03-07T07:53:04.458Z,98844.94
2023-03-07T07:55:31.207Z,98852.75
2023-03-07T07:57:58.046Z,98853.63
2023-03-07T08:00:25.172Z,98854.50
2023-03-07T08:02:52.080Z,98857.09
2023-03-07T08:05:21.460Z,98852.75
2023-03-07T08:07:49.593Z,98857.97
2023-03-07T08:10:17.952Z,98847.50
2023-03-07T08:12:48.443Z,98847.44
2023-03-07T08:15:16.994Z,98846.53
2023-03-07T08:17:44.439Z,98846.53
2023-03-07T08:20:11.581Z,98838.59
2023-03-07T08:22:39.153Z,98853.53
2023-03-07T08:25:17.772Z,98853.53
2023-03-07T08:27:44.893Z,98850.91
2023-03-07T08:30:13.169Z,98866.66
2023-03-07T08:32:40.030Z,98850.91
2023-03-07T08:35:07.626Z,98864.03
2023-03-07T08:37:35.241Z,98862.28
2023-03-07T08:40:02.760Z,98860.53
2023-03-07T08:42:30.139Z,98872.75
2023-03-07T08:44:56.962Z,98867.44
2023-03-07T08:47:24.286Z,98863.06
2023-03-07T08:49:51.379Z,98860.41
2023-03-07T08:52:18.245Z,98869.19
2023-03-07T08:54:45.077Z,98875.31
2023-03-07T08:57:11.839Z,98884.09
2023-03-07T08:59:38.635Z,98877.13
2023-03-07T09:02:05.630Z,98877.13
2023-03-07T09:04:32.476Z,98886.78
2023-03-07T09:07:01.517Z,98882.44
2023-03-07T09:09:30.136Z,98885.94
2023-03-07T09:11:57.545Z,98892.09
2023-03-07T09:14:24.500Z,98893.00
2023-03-07T09:16:53.813Z,98887.75
2023-03-07T09:19:20.665Z,98895.69
2023-03-07T09:21:47.489Z,98890.44
2023-03-07T09:24:14.234Z,98895.75
2023-03-07T09:26:41.017Z,98897.47
2023-03-07T09:29:07.871Z,98891.38
2023-03-07T09:31:34.729Z,98890.50
2023-03-07T09:34:01.489Z,98892.28
2023-03-07T09:36:28.902Z,98894.03
2023-03-07T09:38:58.105Z,98883.59
2023-03-07T09:41:48.686Z,98898.47
2023-03-07T09:44:36.541Z,98897.66
2023-03-07T09:47:35.730Z,98905.53
2023-03-07T09:50:12.465Z,98902.06
2023-03-07T09:52:41.540Z,98903.00
2023-03-07T09:55:19.343Z,98903.00
2023-03-07T09:57:55.295Z,98899.53
2023-03-07T10:00:27.688Z,98890.78
2023-03-07T10:03:09.497Z,98900.50
2023-03-07T10:05:44.285Z,98906.63
2023-03-07T10:08:18.591Z,98908.44
2023-03-07T10:11:23.196Z,98900.53
2023-03-07T10:14:38.462Z,98890.88
2023-03-07T10:17:35.105Z,98899.63
2023-03-07T10:20:36.474Z,98897.88
2023-03-07T10:23:19.862Z,98893.53
2023-03-07T10:26:00.354Z,98894.41
2023-03-07T10:28:31.683Z,98898.78
2023-03-07T10:31:24.306Z,98903.19
2023-03-07T10:33:53.422Z,98911.06
2023-03-07T10:36:51.585Z,98910.19
2023-03-07T10:39:40.056Z,98914.56
2023-03-07T10:42:13.724Z,98913.63
2023-03-07T10:44:42.005Z,98902.25
2023-03-07T10:47:29.700Z,98911.00
2023-03-07T10:50:44.679Z,98922.34
2023-03-07T10:53:30.209Z,98904.84
2023-03-07T10:56:18.941Z,98913.63
2023-03-07T10:59:09.521Z,98918.88
2023-03-07T11:01:39.207Z,98908.38
2023-03-07T11:04:44.695Z,98903.13
2023-03-07T11:07:30.371Z,98908.38
2023-03-07T11:09:59.227Z,98911.88
2023-03-07T11:12:29.447Z,98904.00
2023-03-07T11:14:58.827Z,98906.63
2023-03-07T11:17:49.327Z,98907.50
2023-03-07T11:20:24.920Z,98903.13
2023-03-07T11:23:23.241Z,98897.88
2023-03-07T11:25:52.411Z,98903.13
2023-03-07T11:28:35.692Z,98900.50
2023-03-07T11:31:23.229Z,98908.34
2023-03-07T11:34:41.215Z,98902.22
2023-03-07T11:37:43.225Z,98902.22
2023-03-07T11:41:00.235Z,98897.84
2023-03-07T11:44:10.593Z,98889.91
2023-03-07T11:47:00.945Z,98892.47
2023-03-07T11:49:43.387Z,98885.38
2023-03-07T11:52:41.198Z,98891.41
2023-03-07T11:55:37.365Z,98888.78
2023-03-07T11:58:50.787Z,98892.25
2023-03-07T12:01:57.059Z,98887.88
2023-03-07T12:04:59.596Z,98889.56
2023-03-07T12:08:08.848Z,98888.66
2023-03-07T12:11:13.561Z,98889.53
2023-03-07T12:14:18.683Z,98893.00
2023-03-07T12:17:18.593Z,98891.22
2023-03-07T12:20:23.788Z,98891.09
2023-03-07T12:23:04.655Z,98894.63
2023-03-07T12:25:38.630Z,98894.56
2023-03-07T12:28:22.544Z,98904.09
2023-03-07T12:31:11.460Z,98901.41
2023-03-07T12:34:03.386Z,98911.84
2023-03-07T12:36:49.992Z,98909.13
2023-03-07T12:39:31.353Z,98913.41
2023-03-07T12:42:15.362Z,98905.44
2023-03-07T12:44:51.198Z,98914.13
2023-03-07T12:47:57.935Z,98914.97
2023-03-07T12:50:37.431Z,98913.19
2023-03-07T12:53:32.336Z,98902.66
2023-03-07T12:56:06.144Z,98903.53
2023-03-07T12:58:41.441Z,98902.66
2023-03-07T13:01:32.440Z,98903.59
2023-03-07T13:04:17.777Z,98900.97
2023-03-07T13:06:46.103Z,98895.72
2023-03-07T13:09:26.548Z,98905.31
2023-03-07T13:12:25.234Z,98906.97
2023-03-07T13:15:06.474Z,98908.66
2023-03-07T13:17:35.897Z,98911.25
2023-03-07T13:20:27.533Z,98913.88
2023-03-07T13:22:54.319Z,98912.16
2023-03-07T13:25:21.128Z,98907.72
2023-03-07T13:28:31.302Z,98919.06
2023-03-07T13:31:16.439Z,98920.88
2023-03-07T13:33:43.590Z,98922.72
2023-03-07T13:36:38.531Z,98930.75
2023-03-07T13:39:36.139Z,98949.41
2023-03-07T13:42:03.086Z,98966.25
2023-03-07T13:44:39.550Z,98951.59
2023-03-07T13:47:44.794Z,98945.69
2023-03-07T13:50:38.776Z,98940.47
2023-03-07T13:53:15.768Z,98929.09
2023-03-07T13:55:50.833Z,98911.50
2023-03-07T13:58:24.405Z,98907.88
2023-03-07T14:00:56.193Z,98914.78
2023-03-07T14:03:34.860Z,98918.19
2023-03-07T14:06:11.267Z,98921.63
2023-03-07T14:08:38.942Z,98911.91
2023-03-07T14:11:16.632Z,98918.00
2023-03-07T14:14:34.646Z,98915.31
2023-03-07T14:17:21.042Z,98924.94
2023-03-07T14:20:09.613Z,98941.56
2023-03-07T14:23:18.413Z,98946.88
2023-03-07T14:25:53.043Z,98940.75
2023-03-07T14:28:26.593Z,98945.13
2023-03-07T14:31:07.168Z,98946.94
2023-03-07T14:33:37.772Z,98941.69
2023-03-07T14:36:20.667Z,98939.09
2023-03-07T14:38:48.754Z,98943.53
2023-03-07T14:41:49.332Z,98947.06
2023-03-07T14:44:55.640Z,98943.66
2023-03-07T14:48:06.228Z,98951.63
2023-03-07T14:50:34.053Z,98947.28
2023-03-07T14:53:10.548Z,98948.19
2023-03-07T14:55:43.331Z,98950.81
2023-03-07T14:58:23.872Z,98942.03
2023-03-07T15:01:15.863Z,98945.63
2023-03-07T15:03:49.342Z,98940.38
2023-03-07T15:06:22.791Z,98941.31
2023-03-07T15:08:51.901Z,98946.56
2023-03-07T15:11:45.416Z,98953.56
2023-03-07T15:14:20.276Z,98950.06
2023-03-07T15:16:54.113Z,98951.00
2023-03-07T15:19:25.501Z,98945.75
2023-03-07T15:21:58.928Z,98954.53
2023-03-07T15:24:38.781Z,98953.66
2023-03-07T15:27:10.340Z,98960.69
2023-03-07T15:29:37.517Z,98958.09
2023-03-07T15:32:07.348Z,98963.34
2023-03-07T15:34:39.025Z,98974.78
2023-03-07T15:37:53.339Z,98967.81
2023-03-07T15:40:33.790Z,98971.41
2023-03-07T15:43:04.697Z,98967.03
2023-03-07T15:45:38.705Z,98966.19
2023-03-07T15:48:48.502Z,98967.97
2023-03-07T15:51:19.310Z,98962.75
2023-03-07T15:54:03.431Z,98961.88
2023-03-07T15:56:35.062Z,98966.28
2023-03-07T15:59:17.015Z,98957.53
2023-03-07T16:01:43.962Z,98956.66
2023-03-07T16:04:37.124Z,98960.16
2023-03-07T16:07:04.888Z,98979.47
2023-03-07T16:09:31.697Z,98982.09
2023-03-07T16:11:58.518Z,98981.22
2023-03-07T16:14:29.319Z,98979.44
2023-03-07T16:17:03.947Z,98983.81
2023-03-07T16:19:31.255Z,98982.09
2023-03-07T16:21:58.045Z,98987.34
2023-03-07T16:24:24.890Z,98993.50
2023-03-07T16:26:51.730Z,98997.88
2023-03-07T16:29:22.717Z,98995.28
2023-03-07T16:31:49.551Z,99003.16
2023-03-07T16:34:22.687Z,99011.94
2023-03-07T16:36:50.083Z,99007.56
2023-03-07T16:39:18.305Z,99018.97
2023-03-07T16:41:48.367Z,99016.38
2023-03-07T16:44:20.889Z,99013.75
2023-03-07T16:46:58.575Z,99011.16
2023-03-07T16:49:25.339Z,99020.78
2023-03-07T16:52:04.697Z,99026.03
2023-03-07T16:54:32.419Z,99033.94
2023-03-07T16:56:59.275Z,99040.06
2023-03-07T16:59:35.831Z,99040.91
2023-03-07T17:02:11.778Z,99039.19
2023-03-07T17:04:38.577Z,99033.06
2023-03-07T17:07:15.516Z,99034.81
2023-03-07T17:09:42.845Z,99046.19
2023-03-07T17:12:10.034Z,99048.81
2023-03-07T17:14:36.953Z,99053.19
2023-03-07T17:17:04.956Z,99051.47
2023-03-07T17:19:33.394Z,99051.44
2023-03-07T17:22:02.207Z,99065.41
2023-03-07T17:24:30.029Z,99085.53
2023-03-07T17:27:00.251Z,99092.59
2023-03-07T17:29:43.475Z,99094.41
2023-03-07T17:32:10.719Z,99101.44
2023-03-07T17:34:39.702Z,99100.59
2023-03-07T17:37:06.941Z,99100.59
2023-03-07T17:39:34.730Z,99098.00
2023-03-07T17:42:02.150Z,99092.75
2023-03-07T17:44:29.204Z,99082.25
2023-03-07T17:46:56.093Z,99065.63
2023-03-07T17:49:23.352Z,99063.00
2023-03-07T17:51:50.296Z,99069.16
2023-03-07T17:54:17.311Z,99060.41
2023-03-07T17:56:45.253Z,99061.25
2023-03-07T17:59:12.087Z,99056.03
2023-03-07T18:01:39.974Z,99069.97
2023-03-07T18:04:06.832Z,99081.38
2023-03-07T18:06:34.500Z,99079.63
2023-03-07T18:09:05.181Z,99087.50
2023-03-07T18:11:32.672Z,99089.22
2023-03-07T18:13:59.730Z,99095.34
2023-03-07T18:16:27.139Z,99095.34
2023-03-07T18:19:00.091Z,99089.22
2023-03-07T18:21:30.335Z,99096.19
2023-03-07T18:23:57.602Z,99093.59
2023-03-07T18:26:24.878Z,99095.34
2023-03-07T18:28:53.750Z,99091.84
2023-03-07T18:31:25.300Z,99098.84
2023-03-07T18:33:53.276Z,99110.22
2023-03-07T18:36:23.092Z,99108.47
2023-03-07T18:38:50.592Z,99097.97
2023-03-07T18:41:23.877Z,99099.72
2023-03-07T18:43:53.103Z,99099.72
2023-03-07T18:46:22.315Z,99104.94
2023-03-07T18:48:49.779Z,99109.31
2023-03-07T18:51:23.647Z,99108.44
2023-03-07T18:53:58.736Z,99122.44
2023-03-07T18:56:26.204Z,99118.06
2023-03-07T18:58:56.006Z,99121.56
2023-03-07T19:01:32.535Z,99128.56
2023-03-07T19:04:03.287Z,99125.94
2023-03-07T19:06:40.571Z,99126.81
2023-03-07T19:09:27.774Z,99121.56
2023-03-07T19:11:54.602Z,99118.97
2023-03-07T19:14:21.400Z,99127.69
2023-03-07T19:16:48.357Z,99134.72
2023-03-07T19:19:15.446Z,99132.09
2023-03-07T19:21:42.267Z,99130.34
2023-03-07T19:24:11.279Z,99131.19
2023-03-07T19:26:38.115Z,99139.09
2023-03-07T19:29:04.950Z,99151.31
2023-03-07T19:31:33.127Z,99142.59
2023-03-07T19:34:03.364Z,99156.59
2023-03-07T19:36:31.980Z,99151.38
2023-03-07T19:39:02.096Z,99158.34
2023-03-07T19:41:31.386Z,99160.97
2023-03-07T19:43:59.980Z,99167.09
2023-03-07T19:46:27.552Z,99172.34
2023-03-07T19:48:54.440Z,99169.72
2023-03-07T19:51:24.829Z,99178.44
2023-03-07T19:53:52.319Z,99179.34
2023-03-07T19:56:27.332Z,99181.97
2023-03-07T19:58:54.950Z,99174.97
2023-03-07T20:01:23.533Z,99173.22
2023-03-07T20:03:50.812Z,99184.56
2023-03-07T20:06:21.508Z,99188.94
2023-03-07T20:08:53.042Z,99189.81
2023-03-07T20:11:25.008Z,99201.19
2023-03-07T20:13:55.920Z,99195.06
2023-03-07T20:16:23.459Z,99201.19
2023-03-07T20:18:52.546Z,99204.63
2023-03-07T20:21:21.795Z,99199.41
2023-03-07T20:23:49.005Z,99202.91
2023-03-07T20:26:19.756Z,99205.53
2023-03-07T20:28:46.517Z,99209.03
2023-03-07T20:31:13.761Z,99210.75
2023-03-07T20:33:45.378Z,99219.50
2023-03-07T20:36:24.085Z,99223.84
2023-03-07T20:38:54.631Z,99216.88
2023-03-07T20:41:24.936Z,99219.47
2023-03-07T20:43:53.099Z,99228.22
2023-03-07T20:46:23.321Z,99230.84
2023-03-07T20:48:53.977Z,99232.56
2023-03-07T20:51:23.814Z,99235.19
2023-03-07T20:54:06.084Z,99235.22
2023-03-07T20:56:35.041Z,99244.84
2023-03-07T20:59:02.077Z,99237.84
2023-03-07T21:01:31.537Z,99234.31
2023-03-07T21:04:07.983Z,99242.19
2023-03-07T21:06:37.142Z,99253.53
2023-03-07T21:09:09.951Z,99249.19
2023-03-07T21:11:40.093Z,99244.81
2023-03-07T21:14:06.954Z,99257.91
2023-03-07T21:16:34.348Z,99257.91
2023-03-07T21:19:03.789Z,99260.53
2023-03-07T21:21:32.460Z,99261.38
2023-03-07T21:23:59.753Z,99258.75
2023-03-07T21:26:32.867Z,99250.06
2023-03-07T21:29:00.117Z,99267.50
2023-03-07T21:31:30.343Z,99269.25
2023-03-07T21:34:07.215Z,99262.28
2023-03-07T21:36:34.463Z,99262.28
2023-03-07T21:39:03.995Z,99271.03
2023-03-07T21:41:30.812Z,99270.16
2023-03-07T21:43:58.336Z,99271.06
2023-03-07T21:46:25.976Z,99271.03
2023-03-07T21:48:53.102Z,99274.53
2023-03-07T21:51:20.571Z,99276.28
2023-03-07T21:53:47.471Z,99283.28
2023-03-07T21:56:17.105Z,99290.25
2023-03-07T21:58:47.317Z,99286.75
2023-03-07T22:01:21.535Z,99285.00
2023-03-07T22:03:51.310Z,99291.97
2023-03-07T22:06:18.209Z,99298.06
2023-03-07T22:08:45.169Z,99292.81
2023-03-07T22:11:13.191Z,99290.19
2023-03-07T22:13:41.555Z,99307.63
2023-03-07T22:16:12.549Z,99301.47
2023-03-07T22:18:39.741Z,99305.81
2023-03-07T22:21:13.928Z,99303.19
2023-03-07T22:23:40.982Z,99301.41
2023-03-07T22:26:09.631Z,99303.13
2023-03-07T22:28:37.202Z,99303.13
2023-03-07T22:31:07.694Z,99306.63
2023-03-07T22:33:34.616Z,99310.06
2023-03-07T22:36:05.376Z,99305.72
2023-03-07T22:38:32.507Z,99306.59
2023-03-07T22:41:10.813Z,99308.34
2023-03-07T22:43:37.844Z,99310.09
2023-03-07T22:46:05.771Z,99315.31
2023-03-07T22:48:33.018Z,99310.91
2023-03-07T22:51:00.042Z,99317.03
2023-03-07T22:53:32.073Z,99323.16
2023-03-07T22:55:59.660Z,99322.25
2023-03-07T22:58:27.606Z,99328.38
2023-03-07T23:00:54.500Z,99329.22
2023-03-07T23:03:21.297Z,99338.84
2023-03-07T23:06:19.743Z,99332.72
2023-03-07T23:08:49.468Z,99336.19
2023-03-07T23:11:18.253Z,99340.56
2023-03-07T23:13:45.761Z,99340.56
2023-03-07T23:16:18.980Z,99333.63
2023-03-07T23:18:46.515Z,99332.75
2023-03-07T23:21:16.515Z,99337.16
2023-03-07T23:23:44.307Z,99333.66
2023-03-07T23:26:22.255Z,99335.44
2023-03-07T23:28:49.376Z,99331.91
2023-03-07T23:31:23.208Z,99336.28
2023-03-07T23:33:50.769Z,99337.16
2023-03-07T23:36:17.632Z,99337.19
2023-03-07T23:38:47.501Z,99338.06
2023-03-07T23:41:14.331Z,99343.31
2023-03-07T23:43:41.085Z,99346.81
2023-03-07T23:46:07.870Z,99352.09
2023-03-07T23:48:34.700Z,99352.09
2023-03-07T23:51:01.583Z,99358.22
2023-03-07T23:53:28.381Z,99355.63
2023-03-07T23:55:55.144Z,99366.97
2023-03-07T23:58:21.895Z,99358.25
